Date,TemperatureHighF,TemperatureAvgF,TemperatureLowF,DewpointHighF,DewpointAvgF,DewpointLowF,HumidityHigh,HumidityAvg,HumidityLow,PressureMaxIn,PressureMinIn,WindSpeedMaxMPH,WindSpeedAvgMPH,GustSpeedMaxMPH,PrecipitationSumIn
2013-1-1,36,32,26,33,28,22,91,86,82,30.10,29.99,8,1,8,0.00
2013-1-2,32,24,17,22,17,11,82,74,61,30.25,30.08,9,0,12,0.00
2013-1-3,37,23,9,26,17,5,87,76,64,30.25,30.15,10,1,14,0.00
2013-1-4,38,31,27,27,22,20,77,72,61,30.28,30.18,12,2,19,0.00
2013-1-5,41,31,24,29,23,18,78,72,62,30.41,30.17,8,0,9,0.02
2013-1-6,43,36,32,33,29,25,83,75,66,30.23,30.03,5,0,8,0.10
2013-1-7,42,32,20,32,26,16,83,77,63,30.48,30.23,7,0,8,0.00
2013-1-8,48,29,16,36,23,13,89,79,62,30.38,30.28,7,0,7,0.00
2013-1-9,48,34,23,44,31,19,90,87,82,30.51,30.26,7,0,58,0.04
2013-1-10,45,35,24,38,30,22,93,84,72,30.62,30.30,3,0,3,0.00
2013-1-11,55,46,37,53,42,31,93,87,77,30.30,30.00,0,0,2,0.16
2013-1-12,67,54,45,61,51,43,96,89,77,30.13,30.00,3,0,4,0.02
2013-1-13,70,59,47,59,53,45,95,82,68,30.01,29.90,9,0,9,0.15
2013-1-14,58,42,33,56,36,26,93,78,65,30.39,29.92,14,1,18,0.04
2013-1-15,34,32,30,29,27,24,87,79,74,30.31,30.09,0,0,3,0.14
2013-1-16,37,34,33,34,32,29,92,90,87,30.10,29.92,6,0,9,0.33
2013-1-17,39,34,31,34,30,27,89,85,79,30.21,30.05,7,0,7,0.00
2013-1-18,36,28,20,28,19,12,86,66,56,30.52,30.18,13,1,13,0.00
2013-1-19,55,42,30,29,24,18,63,49,37,30.28,29.89,17,1,17,0.00
2013-1-20,46,38,26,32,23,14,64,54,45,30.16,29.85,14,3,16,0.00
2013-1-21,31,25,15,19,14,5,73,64,57,30.14,29.93,12,2,20,0.00
2013-1-22,18,12,8,6,1,-1,70,62,53,30.30,30.08,19,2,19,0.00
2013-1-23,22,13,4,8,3,-3,73,64,52,30.33,30.09,11,0,11,0.00
2013-1-24,27,18,10,16,8,0,79,66,51,30.54,30.07,8,1,10,0.00
2013-1-25,25,18,11,18,10,1,80,72,64,30.53,30.04,7,0,7,0.00
2013-1-26,36,26,20,28,19,13,84,77,70,30.46,30.12,7,0,8,0.00
2013-1-27,38,25,9,24,16,5,85,71,55,30.55,30.33,6,0,6,0.02
2013-1-28,50,41,30,48,38,22,94,87,70,30.34,30.06,4,0,5,0.19
2013-1-29,68,55,48,60,51,46,96,86,71,30.09,29.85,8,0,8,0.00
2013-1-30,70,56,49,58,52,46,94,87,66,29.85,29.32,12,0,12,0.96
2013-1-31,48,31,25,46,23,16,89,73,62,29.89,29.30,19,4,19,0.04
2013-2-1,25,19,10,19,10,2,81,69,58,30.36,29.85,13,2,14,0.00
2013-2-2,30,20,7,21,13,1,84,75,63,30.34,30.00,15,0,15,0.00
2013-2-3,35,26,20,27,21,13,87,80,73,30.07,29.84,10,1,10,0.02
2013-2-4,35,26,19,26,19,12,85,75,60,30.11,29.89,8,0,8,0.00
2013-2-5,37,32,29,33,28,26,89,86,81,29.98,29.86,5,0,7,0.02
2013-2-6,39,30,16,30,24,12,88,80,65,30.36,29.98,8,0,8,0.02
2013-2-7,51,32,15,36,24,11,88,76,54,30.33,30.00,4,0,8,0.06
2013-2-8,41,33,27,37,28,22,89,83,78,30.18,29.84,14,2,17,0.10
2013-2-9,39,28,18,26,20,13,83,72,56,30.41,30.18,11,2,11,0.00
2013-2-10,57,34,14,38,23,10,86,67,46,30.38,30.00,0,0,4,0.00
2013-2-11,65,49,39,51,37,27,88,66,37,30.00,29.71,23,2,23,0.06
2013-2-12,49,39,27,32,27,20,76,63,51,30.11,29.94,17,1,17,0.00
2013-2-13,42,31,22,34,26,18,87,79,66,29.96,29.70,0,0,6,0.02
2013-2-14,47,37,29,37,31,25,87,79,65,30.00,29.89,8,0,12,0.16
2013-2-15,44,36,28,35,30,24,87,79,65,30.08,29.94,8,0,10,0.00
2013-2-16,40,28,18,31,21,12,86,76,59,30.08,29.94,7,0,7,0.06
2013-2-17,29,22,17,19,14,7,82,72,62,30.28,29.94,13,3,13,0.00
2013-2-18,48,27,7,30,16,2,82,66,47,30.33,29.92,8,0,8,0.04
2013-2-19,46,37,27,41,30,18,85,77,63,29.98,29.72,16,3,22,0.15
2013-2-20,27,23,21,18,14,12,78,69,61,30.24,29.98,15,3,20,0.00
2013-2-21,30,24,20,20,16,12,78,71,62,30.37,30.21,8,1,9,0.00
2013-2-22,41,33,22,35,27,15,83,77,65,30.30,30.01,8,0,9,0.02
2013-2-23,52,39,30,42,33,26,86,80,69,30.03,29.88,4,0,8,0.00
2013-2-24,33,30,27,28,25,21,87,80,74,30.17,29.88,8,1,13,0.00
2013-2-25,46,34,22,31,24,18,86,70,51,30.25,30.08,8,0,8,0.00
2013-2-26,42,36,28,37,29,20,89,75,58,30.09,29.62,12,1,12,0.69
2013-2-27,45,40,34,41,36,31,92,87,80,29.73,29.60,7,0,9,0.22
2013-2-28,39,34,33,35,31,30,90,88,78,29.84,29.67,8,0,8,0.08
2013-3-1,36,32,28,31,27,22,89,82,75,30.00,29.84,8,2,8,0.00
2013-3-2,34,29,26,26,23,21,85,79,71,29.99,29.92,8,1,8,0.00
2013-3-3,33,28,25,23,21,19,86,76,65,30.03,29.95,12,3,12,0.00
2013-3-4,43,30,22,27,20,16,80,67,51,30.15,30.03,11,1,15,0.00
2013-3-5,50,35,17,30,22,13,84,62,38,30.12,29.71,10,0,11,0.00
2013-3-6,47,37,32,37,30,27,89,77,62,30.13,29.70,7,0,8,0.33
2013-3-7,44,37,34,34,30,27,84,76,65,30.30,30.12,7,1,11,0.00
2013-3-8,39,34,25,30,27,21,83,76,69,30.42,30.30,10,2,16,0.00
2013-3-9,62,38,20,41,28,16,89,69,37,30.43,30.20,2,0,3,0.00
2013-3-10,78,52,33,45,35,24,77,55,31,30.21,30.03,8,0,9,0.00
2013-3-11,67,55,46,47,39,34,81,56,37,30.05,29.76,11,1,11,0.06
2013-3-12,53,42,37,47,35,28,84,76,68,30.04,29.80,10,1,11,0.06
2013-3-13,42,34,28,32,26,21,86,74,52,30.16,29.96,21,3,21,0.00
2013-3-14,44,32,25,26,21,17,75,64,48,30.25,30.15,16,3,16,0.00
2013-3-15,55,39,23,37,28,16,80,65,50,30.17,29.85,11,1,13,0.00
2013-3-16,46,41,36,41,36,32,87,83,70,29.99,29.66,8,1,11,0.02
2013-3-17,42,35,30,32,27,23,85,71,56,30.21,29.99,8,1,8,0.00
2013-3-18,42,37,32,38,31,24,88,81,70,30.17,29.73,12,1,12,0.37
2013-3-19,50,41,30,42,30,19,90,67,39,30.01,29.73,21,4,22,0.04
2013-3-20,46,34,26,27,20,16,68,57,45,30.02,29.84,16,1,16,0.00
2013-3-21,33,27,20,19,16,13,79,63,50,29.95,29.88,13,1,15,0.00
2013-3-22,41,31,24,25,20,16,74,65,51,30.05,29.93,10,1,10,0.00
2013-3-23,52,34,17,31,22,12,85,63,41,30.07,30.00,8,0,11,0.00
2013-3-24,46,35,26,29,24,18,80,66,49,30.02,29.56,10,0,11,0.00
2013-3-25,46,37,32,38,32,28,88,81,72,29.77,29.49,5,0,6,0.29
2013-3-26,49,38,33,38,32,29,89,78,62,30.11,29.77,13,1,13,0.02
2013-3-27,49,39,33,36,30,27,86,70,51,30.19,30.10,14,1,15,0.02
2013-3-28,46,40,36,34,30,28,75,69,57,30.29,30.16,8,1,10,0.00
2013-3-29,58,44,34,39,30,24,81,61,39,30.30,30.19,8,0,8,0.00
2013-3-30,63,43,24,35,27,18,82,56,30,30.28,30.05,8,0,8,0.00
2013-3-31,56,45,36,49,37,22,87,73,53,30.06,29.78,8,0,8,0.12
2013-4-1,49,43,31,43,31,16,89,66,39,30.05,29.76,13,2,18,0.00
2013-4-2,47,34,26,23,18,14,67,53,37,30.22,30.05,16,1,16,0.00
2013-4-3,47,33,20,26,17,10,79,53,36,30.42,30.21,14,2,16,0.00
2013-4-4,61,38,16,28,19,8,74,50,27,30.41,30.01,4,0,6,0.00
2013-4-5,62,44,27,37,27,18,77,52,37,30.20,29.97,18,1,18,0.00
2013-4-6,68,46,23,31,24,15,77,46,23,30.32,30.05,6,0,8,0.00
2013-4-7,77,62,48,50,41,25,71,48,37,30.05,29.94,10,1,14,0.00
2013-4-8,82,64,46,56,48,39,82,59,37,30.09,29.95,9,0,11,0.00
2013-4-9,88,72,58,62,55,49,74,57,39,30.15,29.98,10,0,10,0.00
2013-4-10,88,72,58,66,58,49,83,61,44,30.04,29.86,16,1,16,0.15
2013-4-11,82,67,52,64,57,49,92,73,54,29.95,29.65,9,0,9,0.02
2013-4-12,71,61,47,63,51,35,91,72,45,29.92,29.58,20,2,20,0.53
2013-4-13,63,49,36,41,36,29,78,60,42,30.05,29.91,12,1,15,0.00
2013-4-14,71,52,30,45,36,24,85,58,38,30.19,30.04,8,0,8,0.00
2013-4-15,72,61,54,54,47,38,72,60,50,30.16,30.01,8,0,8,0.00
2013-4-16,86,66,47,64,54,43,88,69,47,30.26,30.08,13,1,15,0.41
2013-4-17,72,62,56,60,55,52,91,80,65,30.29,30.15,6,0,7,0.00
2013-4-18,93,74,56,67,60,52,92,65,41,30.16,29.86,10,1,13,0.00
2013-4-19,75,61,45,63,51,34,80,69,59,29.92,29.57,19,2,19,0.10
2013-4-20,55,44,34,36,30,23,77,59,43,30.41,29.92,16,2,16,0.00
2013-4-21,60,44,27,33,27,20,81,54,34,30.61,30.41,7,0,8,0.00
2013-4-22,69,53,39,39,32,25,64,46,28,30.48,30.31,9,0,10,0.00
2013-4-23,80,59,36,47,39,28,78,50,30,30.32,30.02,0,0,5,0.00
2013-4-24,79,57,42,58,46,35,84,68,47,30.21,29.81,11,1,15,0.19
2013-4-25,42,42,42,35,35,35,79,79,79,30.22,30.21,7,3,7,0.00
2013-4-26,68,55,43,39,34,30,61,46,35,30.43,30.40,4,0,4,0.00
2013-4-27,83,59,33,50,39,27,83,52,27,30.42,30.20,6,0,7,0.00
2013-4-28,64,57,50,57,48,39,83,72,53,30.21,29.99,5,0,6,0.23
2013-4-29,72,59,50,61,53,45,86,80,65,30.08,29.98,3,0,6,0.10
2013-4-30,80,64,51,61,54,48,92,72,50,30.24,30.07,9,0,9,0.00
2013-5-1,85,67,50,61,51,39,88,59,35,30.36,30.24,8,0,8,0.00
2013-5-2,85,66,45,50,43,36,77,47,25,30.39,30.25,7,0,10,0.00
2013-5-3,83,64,45,54,44,36,77,50,32,30.30,30.21,9,0,9,0.00
2013-5-4,79,62,44,50,43,33,70,51,35,30.27,30.13,11,0,11,0.00
2013-5-5,81,62,44,47,40,34,78,47,23,30.20,30.06,8,0,10,0.00
2013-5-6,77,61,44,58,48,35,78,61,49,30.13,30.05,5,0,5,0.00
2013-5-7,67,61,56,60,56,51,88,83,76,30.08,29.99,4,0,7,0.33
2013-5-8,85,67,52,59,55,50,94,69,38,30.04,29.94,1,0,3,0.39
2013-5-9,83,66,53,64,55,48,89,70,39,30.06,29.96,0,0,5,0.02
2013-5-10,84,65,56,69,58,51,93,80,58,30.07,29.87,4,0,8,0.57
2013-5-11,63,59,51,61,56,47,94,89,80,29.90,29.84,4,0,4,0.35
2013-5-12,60,51,43,49,38,32,89,62,42,30.09,29.89,6,0,7,0.00
2013-5-13,59,48,35,36,31,25,76,54,38,30.21,30.09,5,0,5,0.00
2013-5-14,68,51,31,46,38,24,87,63,44,30.23,29.94,0,0,0,0.00
2013-5-15,93,71,51,69,57,41,83,62,43,29.94,29.77,5,0,6,0.00
2013-5-16,87,73,61,69,60,54,90,66,34,30.04,29.84,3,0,3,0.33
2013-5-17,93,73,59,68,60,53,89,67,40,30.16,30.04,0,0,1,0.00
2013-5-18,93,72,54,69,59,49,85,67,42,30.18,30.08,0,0,0,0.00
2013-5-19,87,71,59,70,62,54,88,73,56,30.16,30.04,0,0,0,0.00
2013-5-20,95,77,61,74,66,56,90,71,49,30.10,29.98,0,0,2,0.00
2013-5-21,95,78,64,75,68,60,90,71,49,30.04,29.90,4,0,4,0.00
2013-5-22,94,74,64,72,65,60,90,76,49,29.97,29.86,5,0,7,0.43
2013-5-23,80,67,57,69,62,54,94,86,64,29.95,29.85,4,0,4,0.67
2013-5-24,56,48,42,53,40,32,89,76,58,30.32,29.95,6,0,6,0.02
2013-5-25,68,51,34,46,37,29,87,62,39,30.35,30.24,6,0,6,0.00
2013-5-26,76,56,37,48,40,31,86,58,34,30.33,30.24,2,0,4,0.00
2013-5-27,66,55,40,53,46,34,85,72,61,30.31,30.13,0,0,0,0.00
2013-5-28,86,68,56,72,60,50,93,79,55,30.14,30.04,3,0,3,0.26
2013-5-29,94,77,64,72,64,58,87,67,44,30.16,30.07,5,0,5,0.00
2013-5-30,97,78,60,76,66,56,88,70,44,30.26,30.14,0,0,0,0.00
2013-5-31,97,79,63,74,67,59,90,69,44,30.19,30.05,2,0,2,0.00
2013-6-1,95,79,66,74,68,62,89,70,50,30.08,29.89,4,0,5,0.02
2013-6-2,88,76,68,70,66,62,89,73,51,29.94,29.86,4,0,4,0.04
2013-6-3,73,66,55,63,58,48,88,77,62,30.10,29.92,0,0,2,0.00
2013-6-4,83,63,43,59,50,38,86,65,40,30.21,30.10,4,0,5,0.00
2013-6-5,94,70,50,71,58,46,87,67,45,30.18,29.98,4,0,4,0.00
2013-6-6,73,67,64,69,63,58,92,87,71,30.00,29.82,0,0,0,0.90
2013-6-7,69,65,61,65,62,57,94,89,82,29.90,29.79,3,0,3,0.00
2013-6-8,81,66,58,65,58,54,88,76,57,30.15,29.90,0,0,0,0.00
2013-6-9,92,73,58,72,63,53,91,72,48,30.20,30.05,3,0,3,0.00
2013-6-10,84,71,65,76,66,61,92,85,73,30.06,29.84,0,0,3,0.57
2013-6-11,83,71,65,71,65,62,91,83,61,29.94,29.84,5,0,6,0.08
2013-6-12,90,76,64,75,68,61,92,77,57,29.96,29.79,5,0,5,0.00
2013-6-13,75,69,62,69,64,57,93,85,77,29.82,29.57,6,0,6,0.63
2013-6-14,80,66,56,65,58,52,91,76,54,30.09,29.82,4,0,4,0.00
2013-6-15,88,70,54,64,58,50,92,69,41,30.16,30.04,4,0,4,0.00
2013-6-16,79,69,63,73,64,58,89,83,74,30.06,29.95,5,0,5,0.16
2013-6-17,91,76,65,73,67,62,92,75,49,30.02,29.94,0,0,2,0.00
2013-6-18,83,70,64,72,64,60,90,84,68,29.97,29.88,0,0,0,0.08
2013-6-19,86,69,59,62,58,51,89,69,40,30.17,29.97,4,0,5,0.00
2013-6-20,92,70,52,68,58,47,88,67,42,30.25,30.17,0,0,3,0.00
2013-6-21,96,74,56,71,61,51,88,68,41,30.28,30.17,0,0,0,0.00
2013-6-22,97,78,60,77,67,56,88,71,49,30.25,30.10,0,0,0,0.00
2013-6-23,95,80,66,77,69,62,89,72,50,30.19,30.08,0,0,0,0.00
2013-6-24,96,80,66,77,70,62,90,72,53,30.17,30.04,2,0,2,0.00
2013-6-25,97,79,67,77,69,63,90,72,50,30.09,29.93,4,0,5,0.19
2013-6-26,88,75,66,76,69,64,94,82,63,30.01,29.85,3,0,3,1.39
2013-6-27,79,72,68,74,68,65,94,88,78,29.85,29.69,0,0,4,0.51
2013-6-28,80,70,64,74,67,61,94,88,76,29.70,29.55,0,0,4,0.63
2013-6-29,87,71,62,72,66,60,94,83,58,29.72,29.59,2,0,4,0.12
2013-6-30,92,74,62,75,67,59,94,78,56,29.87,29.72,3,0,3,0.00
2013-7-1,88,75,67,74,68,63,93,80,58,29.97,29.83,0,0,2,0.37
2013-7-2,95,78,67,78,71,64,93,79,56,30.09,29.95,3,0,3,0.26
2013-7-3,94,79,68,77,70,65,91,76,55,30.19,30.08,0,0,0,0.00
2013-7-4,98,80,71,79,71,67,91,76,51,30.24,30.13,2,0,2,0.27
2013-7-5,94,80,68,77,71,65,92,77,56,30.19,30.11,3,0,4,0.02
2013-7-6,99,82,70,79,72,66,91,75,50,30.19,30.04,0,0,0,0.00
2013-7-7,85,76,70,75,70,66,88,80,69,30.13,30.03,4,0,5,0.14
2013-7-8,93,78,67,76,69,64,91,77,56,30.14,30.06,0,0,0,0.00
2013-7-9,89,76,69,79,71,66,94,85,71,30.13,29.99,0,0,4,1.04
2013-7-10,90,74,67,100,71,64,95,88,69,30.04,29.84,6,0,6,1.41
2013-7-11,83,73,66,72,65,59,93,77,58,30.00,29.90,4,0,4,0.00
2013-7-12,78,68,59,68,62,55,89,82,69,30.11,29.97,4,0,4,0.02
2013-7-13,92,76,63,75,68,60,91,77,55,30.18,30.09,0,0,4,0.00
2013-7-20,78,73,71,72,69,67,89,86,83,29.93,29.88,0,0,0,0.00
2013-7-21,94,77,67,79,71,65,94,82,59,29.98,29.90,0,0,1,0.08
2013-7-22,87,74,67,78,70,64,93,87,70,29.95,29.78,1,0,1,1.37
2013-7-23,93,75,66,76,69,62,94,83,57,29.79,29.71,4,0,5,0.86
2013-7-24,79,69,61,64,60,54,92,74,55,29.98,29.76,4,0,5,0.00
2013-7-25,84,68,54,62,57,50,89,70,44,30.08,29.97,6,0,6,0.00
2013-7-26,91,71,57,68,60,52,90,71,45,30.09,29.99,2,0,2,0.00
2013-7-27,77,67,60,72,63,56,92,87,79,30.00,29.84,0,0,0,0.67
2013-7-28,86,71,60,68,63,54,94,77,50,30.03,29.84,6,0,6,0.20
2013-7-29,82,66,54,64,57,50,90,73,51,30.18,30.03,5,0,5,0.00
2013-7-30,88,71,58,67,61,54,92,72,47,30.22,30.14,4,0,5,0.00
2013-7-31,84,69,59,71,63,55,90,82,63,30.15,29.96,0,0,0,0.04
2013-8-1,88,74,66,73,66,60,94,78,53,29.96,29.86,3,0,3,0.06
2013-8-2,87,72,60,68,63,56,90,74,49,29.98,29.90,5,0,6,0.00
2013-8-3,81,70,63,72,65,59,91,84,73,29.98,29.92,0,0,0,0.18
2013-8-4,81,68,59,64,58,54,93,75,49,30.07,29.98,4,0,7,0.00
2013-8-5,84,66,55,65,58,50,91,75,50,30.11,30.01,0,0,0,0.00
2013-8-6,92,72,57,70,61,53,90,71,45,30.03,29.96,0,0,1,0.00
2013-8-7,92,73,62,77,66,58,91,81,60,30.00,29.91,2,0,3,1.90
2013-8-8,90,76,66,80,70,63,95,85,68,29.98,29.91,4,0,4,0.06
2013-8-9,85,75,68,78,71,65,94,89,78,30.01,29.89,1,0,5,0.89
2013-8-10,92,75,64,73,67,62,95,79,54,30.08,30.01,0,0,0,0.00
2013-8-11,94,75,65,77,68,62,92,80,52,30.11,30.00,0,0,2,0.45
2013-8-12,91,76,67,76,69,65,94,81,58,30.05,29.89,0,0,0,0.00
2013-8-13,84,72,61,73,65,52,93,78,59,29.96,29.80,5,0,8,0.13
2013-8-14,76,61,51,61,53,47,88,75,57,30.13,29.96,0,0,2,0.00
2013-8-15,84,64,53,64,55,48,92,75,45,30.18,30.08,0,0,0,0.00
2013-8-16,87,67,53,68,57,48,90,73,47,30.16,30.08,0,0,0,0.00
2013-8-17,84,68,55,66,59,51,90,74,50,30.23,30.16,0,0,0,0.00
2013-8-18,79,69,63,69,63,58,90,82,70,30.21,30.12,0,0,0,0.02
2013-8-19,88,73,65,74,67,60,94,83,60,30.13,30.05,0,0,0,0.41
2013-8-20,91,73,61,74,65,59,94,78,50,30.18,30.09,0,0,0,0.00
2013-8-21,95,74,59,77,66,55,93,78,53,30.19,30.05,0,0,1,0.00
2013-8-22,90,75,66,76,68,63,92,80,61,30.11,29.97,2,0,2,0.02
2013-8-23,87,72,66,74,67,61,94,83,58,30.13,29.97,0,0,0,0.78
2013-8-24,92,71,58,72,63,55,93,76,46,30.28,30.13,0,0,0,0.00
2013-8-25,92,72,57,72,63,54,91,75,50,30.35,30.22,2,0,2,0.00
2013-8-26,92,74,60,73,65,56,92,77,53,30.25,30.03,2,0,4,0.00
2013-8-27,86,76,69,76,70,66,92,84,71,30.04,29.94,0,0,3,0.00
2013-8-28,83,73,69,79,71,68,95,91,82,29.95,29.82,0,0,5,2.02
2013-8-29,90,77,70,78,71,66,96,84,59,30.03,29.90,2,0,3,0.02
2013-8-30,94,77,65,79,70,63,96,80,58,30.01,29.84,0,0,0,0.00
2013-8-31,92,78,69,78,71,66,94,81,59,29.87,29.78,0,0,0,0.00
2013-9-1,86,75,69,77,70,66,93,85,71,29.85,29.78,0,0,0,0.00
2013-9-2,91,76,68,78,70,65,94,82,60,29.85,29.74,0,0,0,0.00
2013-9-3,80,68,59,65,60,53,93,77,54,30.03,29.83,0,0,0,0.00
2013-9-4,86,67,54,67,58,50,93,76,50,30.12,30.03,0,0,0,0.00
2013-9-5,80,66,57,65,57,49,92,74,50,30.19,30.06,0,0,0,0.00
2013-9-6,82,62,46,61,50,42,89,69,42,30.24,30.12,0,0,0,0.00
2013-9-7,87,65,49,66,55,44,92,74,45,30.11,29.95,0,0,0,0.00
2013-9-8,85,71,62,71,64,58,91,79,63,30.04,29.92,0,0,3,0.00
2013-9-9,90,72,59,77,66,55,92,82,63,30.09,30.00,0,0,0,0.00
2013-9-10,95,79,68,81,72,66,93,81,62,30.14,30.04,0,0,6,0.00
2013-9-11,90,78,0,80,72,0,93,84,69,30.15,30.01,0,0,0,0.02
2013-9-12,80,73,65,74,69,62,94,88,80,30.01,29.80,1,0,2,0.10
2013-9-13,73,62,54,62,55,46,92,80,62,30.02,29.81,7,0,7,0.02
2013-9-14,74,58,50,55,49,44,85,72,49,30.15,30.01,0,0,4,0.00
2013-9-15,77,60,46,63,52,43,92,78,59,30.16,30.04,0,0,0,0.00
2013-9-16,76,63,56,63,56,50,92,81,63,30.28,30.02,4,0,5,0.22
2013-9-17,79,59,47,61,51,43,90,75,51,30.35,30.22,2,0,2,0.00
2013-9-18,80,60,45,61,51,41,90,75,52,30.23,30.09,0,0,0,0.00
2013-9-19,84,68,61,69,62,56,92,80,59,30.13,30.02,0,0,0,0.00
2013-9-20,84,70,58,73,65,54,93,82,67,30.04,29.84,2,0,2,0.00
2013-9-21,71,64,58,67,62,56,94,91,87,29.84,29.67,8,0,8,1.10
2013-9-22,68,58,53,57,52,48,96,81,59,30.00,29.79,3,0,5,0.00
2013-9-23,61,54,44,50,46,39,85,76,64,30.11,29.99,1,0,1,0.00
2013-9-24,78,55,41,60,47,38,92,77,51,30.09,29.94,0,0,0,0.00
2013-9-25,83,60,45,64,51,42,91,76,51,29.96,29.84,0,0,0,0.00
2013-9-26,81,61,47,61,52,44,91,73,44,30.05,29.91,4,0,5,0.00
2013-9-27,82,61,47,63,52,43,91,75,49,30.16,30.05,0,0,0,0.00
2013-9-28,73,56,48,62,51,44,91,82,64,30.23,30.12,0,0,0,0.00
2013-9-29,80,62,50,65,54,45,90,77,57,30.13,29.98,0,0,0,0.00
2013-9-30,75,62,52,66,57,49,91,83,73,30.03,29.96,0,0,0,0.00
2013-10-1,84,66,57,68,60,54,92,80,57,30.07,29.99,6,0,6,0.00
2013-10-2,86,68,57,71,61,54,92,80,59,30.10,30.03,0,0,5,0.00
2013-10-3,84,69,60,72,63,56,93,82,64,30.09,30.01,0,0,2,0.19
2013-10-4,87,72,63,74,66,61,94,82,61,30.11,30.03,0,0,0,0.00
2013-10-5,88,73,64,73,66,61,93,81,59,30.09,29.97,0,0,2,0.00
2013-10-6,89,74,64,71,65,59,93,76,48,29.98,29.77,2,0,3,0.00
2013-10-7,69,58,47,63,51,42,89,77,59,30.11,29.70,10,0,10,0.33
2013-10-8,71,54,42,55,46,39,93,76,51,30.27,30.10,3,0,5,0.00
2013-10-9,73,54,39,53,45,36,91,72,46,30.28,30.19,0,0,2,0.00
2013-10-10,69,57,49,51,46,42,79,68,52,30.19,30.05,0,0,0,0.00
2013-10-11,60,57,53,56,52,48,91,86,73,30.06,30.00,3,0,6,0.14
2013-10-12,79,64,54,68,58,51,91,82,65,30.13,30.02,0,0,0,0.00
2013-10-13,75,64,58,64,58,54,91,81,67,30.22,30.11,0,0,0,0.02
2013-10-14,65,60,58,61,57,54,92,89,84,30.26,30.20,0,0,0,0.10
2013-10-15,76,62,52,65,58,49,95,84,68,30.20,29.97,0,0,0,0.00
2013-10-16,66,60,55,63,57,51,92,90,86,29.97,29.85,0,0,0,0.10
2013-10-17,63,57,50,60,54,48,92,90,86,29.89,29.66,7,0,7,0.49
2013-10-18,68,53,44,51,46,39,92,78,52,30.00,29.88,5,0,6,0.00
2013-10-19,55,46,37,50,42,34,93,87,81,29.95,29.73,7,0,7,0.12
2013-10-20,64,47,36,47,40,34,93,78,52,30.01,29.90,5,0,7,0.00
2013-10-21,41,34,0,36,30,0,83,81,76,30.01,29.80,0,0,0,0.00
2013-10-22,50,41,0,38,33,0,80,72,64,29.93,29.77,0,0,0,0.00
2013-10-23,45,42,36,41,38,33,89,86,80,29.97,29.79,5,0,5,0.15
2013-10-24,51,40,33,37,34,28,91,78,55,30.18,29.96,6,0,8,0.00
2013-10-25,53,39,30,41,32,27,91,77,55,30.37,30.18,5,0,5,0.00
2013-10-26,55,42,31,36,31,27,89,69,47,30.29,29.94,6,0,6,0.00
2013-10-27,59,44,32,39,33,28,86,67,46,30.14,30.01,5,0,5,0.00
2013-10-28,64,43,30,45,35,26,92,73,47,30.31,30.13,0,0,0,0.00
2013-10-29,64,46,32,46,38,29,92,75,49,30.40,30.28,0,0,0,0.00
2013-10-30,67,54,43,56,47,37,87,78,65,30.28,30.15,0,0,0,0.00
2013-10-31,69,62,57,61,57,53,93,85,73,30.15,29.54,6,0,6,0.08
2013-11-1,71,60,46,60,50,41,87,71,52,29.76,29.42,16,1,16,0.17
2013-11-2,55,50,46,46,44,41,86,79,67,29.99,29.71,8,0,14,0.00
2013-11-3,53,43,32,42,35,26,87,74,54,30.46,29.99,7,0,8,0.00
2013-11-4,51,38,27,32,28,22,85,68,47,30.56,30.43,2,0,6,0.00
2013-11-5,67,47,34,43,34,28,81,62,40,30.53,30.36,0,0,6,0.00
2013-11-6,77,55,34,56,44,28,86,68,47,30.37,29.97,8,0,10,0.00
2013-11-7,63,48,38,56,41,29,91,77,60,30.18,29.91,10,1,13,0.47
2013-11-8,46,38,26,34,29,22,83,70,54,30.32,30.13,10,1,11,0.00
2013-11-9,59,42,25,38,29,21,90,64,38,30.31,30.00,9,0,13,0.00
2013-11-10,52,45,34,38,33,26,73,62,49,30.31,30.02,13,2,15,0.00
2013-11-11,52,41,28,39,31,23,87,70,49,30.31,30.08,11,0,11,0.02
2013-11-12,42,32,28,37,26,21,90,78,58,30.49,30.10,10,1,10,0.06
2013-11-13,40,30,23,27,22,18,85,72,55,30.54,30.40,10,1,10,0.00
2013-11-14,53,36,25,31,24,20,81,64,40,30.40,30.20,9,0,9,0.00
2013-11-15,58,44,31,38,29,22,72,57,35,30.26,30.16,8,0,9,0.00
2013-11-16,66,50,36,53,43,32,90,77,60,30.26,30.08,0,0,4,0.02
2013-11-17,64,57,48,59,53,43,92,87,78,30.08,29.60,16,0,16,0.55
2013-11-18,58,50,41,52,37,28,87,61,46,30.09,29.69,13,3,13,0.00
2013-11-19,41,36,27,29,26,21,78,66,61,30.41,30.09,11,1,11,0.00
2013-11-20,52,35,24,30,22,17,84,61,33,30.48,30.37,7,0,9,0.00
2013-11-21,63,45,28,44,33,19,77,64,48,30.45,30.26,6,0,7,0.00
2013-11-22,56,50,39,53,47,34,93,87,71,30.26,30.09,12,1,14,0.28
2013-11-23,40,34,22,35,26,13,85,73,57,30.36,30.16,14,3,18,0.00
2013-11-24,28,21,14,16,12,7,76,68,56,30.54,30.37,13,3,14,0.00
2013-11-25,43,27,11,25,14,6,85,62,39,30.51,30.24,7,0,10,0.00
2013-11-26,39,35,32,35,31,25,93,86,66,30.26,29.74,6,0,6,1.12
2013-11-27,34,30,24,32,26,18,93,85,74,30.15,29.74,17,3,17,0.02
2013-11-28,35,27,16,24,19,11,84,73,61,30.44,30.16,12,1,12,0.02
2013-11-29,41,30,24,27,22,18,83,72,56,30.65,30.43,5,0,8,0.02
2013-11-30,42,30,21,30,23,16,84,75,59,30.62,30.25,0,0,1,0.00
2013-12-1,49,39,26,36,31,22,86,74,58,30.25,30.01,2,0,6,0.00
2013-12-2,55,44,36,42,36,30,84,73,60,30.01,29.85,2,0,2,0.00
2013-12-3,58,44,38,46,38,34,88,79,61,29.95,29.87,2,0,2,0.02
2013-12-4,64,47,33,52,41,30,92,81,65,30.03,29.92,0,0,0,0.00
2013-12-5,67,56,43,59,52,41,94,86,72,30.07,29.90,10,0,13,0.83
2013-12-6,43,36,30,41,34,28,93,91,85,30.29,30.06,9,0,9,0.61
2013-12-7,37,29,23,29,24,18,92,83,71,30.59,30.28,4,0,6,0.02
2013-12-8,33,26,19,30,22,14,90,82,79,30.58,30.09,7,0,7,0.00
2013-12-9,42,36,32,38,33,28,94,88,81,30.17,29.99,9,1,10,0.04
2013-12-10,34,29,22,28,22,14,86,75,62,30.29,30.05,10,1,11,0.02
2013-12-11,35,25,16,22,17,11,82,71,56,30.38,30.25,10,1,10,0.00
2013-12-12,26,21,16,16,11,8,79,65,53,30.49,30.28,13,2,13,0.00
2013-12-13,40,28,18,24,16,8,73,62,52,30.28,30.21,9,0,10,0.00
2013-12-14,38,34,28,36,29,21,92,84,73,30.26,29.70,2,0,6,0.28
2013-12-15,41,33,26,39,28,18,93,83,70,30.05,29.66,17,3,17,0.02
2013-12-16,32,26,22,24,20,17,84,78,70,30.18,30.05,13,0,13,0.00
2013-12-17,38,32,27,33,28,22,90,84,76,30.07,29.96,6,0,8,0.04
2013-12-18,34,28,20,28,22,15,87,80,71,30.23,30.07,9,0,11,0.00
2013-12-19,57,41,24,41,31,20,87,67,54,30.15,30.07,15,0,15,0.00
2013-12-20,60,51,36,49,41,29,87,69,53,30.07,29.94,12,0,12,0.06
2013-12-21,61,58,54,59,54,49,95,89,80,29.95,29.71,5,0,7,0.80
2013-12-22,68,60,55,61,56,50,96,87,78,29.99,29.62,21,1,21,0.24
2013-12-23,55,41,32,50,37,24,92,85,74,30.31,29.99,10,1,10,0.08
2013-12-24,32,25,14,25,17,7,84,71,60,30.54,30.25,16,2,20,0.00
2013-12-25,31,22,11,22,15,6,85,76,64,30.53,30.24,0,0,0,0.00
2013-12-26,40,32,24,30,24,18,87,74,60,30.38,30.17,12,1,13,0.02
2013-12-27,45,32,22,31,24,17,83,72,56,30.39,30.30,7,0,7,0.00
2013-12-28,53,38,26,36,27,20,82,67,50,30.30,30.10,10,0,10,0.00
2013-12-29,43,41,37,41,36,28,93,85,65,30.09,29.69,9,0,9,0.65
2013-12-30,41,30,25,38,24,17,91,81,72,30.21,29.88,12,2,12,0.00
2013-12-31,29,26,22,23,20,16,84,78,69,30.34,30.10,12,1,14,0.00
2014-1-1,46,33,26,32,25,20,79,73,56,30.34,30.07,6,0,6,0.00
2014-1-2,32,27,13,28,22,9,89,84,78,30.07,29.70,12,1,12,0.00